• Join FlightAware (Why Join?)
  • Login
  • US Flag 
11:07AM EDT


 

Airport Tracker/Info


-or-


 

Live Flight TrackerFlight Track Log ✈ AFL150 ✈ 17-Jan-2014 ✈ UUEE / SVO - MUHA / HAV

Flight Track Log - Related Links

Times and Time Zones

All times are in EST time to prevent confusion due to time zone crossing. See the AFL150 flight status page for this flight to view local times or setup timezone preferences in your user account.

Time Position Orientation Groundspeed Altitude Reporting Facility
EST Latitude Longitude Course Direction KTS MPH feet Rate Location/Type
05:07AM 56.0774 37.1561 319° Northwest  Level FlightAware Approximate
05:08AM 56.1661 37.0171 319° Northwest  Level FlightAware Approximate
05:09AM 56.2546 36.8774 319° Northwest  Level FlightAware Approximate
05:10AM 56.3430 36.7371 319° Northwest  Level FlightAware Approximate
05:11AM 56.4312 36.5961 319° Northwest  Level FlightAware Approximate
05:12AM 56.5193 36.4545 318° Northwest  Level FlightAware Approximate
05:13AM 56.6072 36.3122 318° Northwest  Level FlightAware Approximate
05:14AM 56.6949 36.1693 318° Northwest  Level FlightAware Approximate
05:15AM 56.7824 36.0256 318° Northwest  Level FlightAware Approximate
05:16AM 56.8698 35.8814 318° Northwest  Level FlightAware Approximate
05:17AM 56.9571 35.7364 318° Northwest  Level FlightAware Approximate
05:18AM 57.0441 35.5908 318° Northwest  Level FlightAware Approximate
05:19AM 57.1310 35.4444 318° Northwest  Level FlightAware Approximate
05:20AM 57.2177 35.2974 317° Northwest  Level FlightAware Approximate
05:21AM 57.3043 35.1497 317° Northwest  Level FlightAware Approximate
05:22AM 57.3907 35.0013 317° Northwest  Level FlightAware Approximate
05:23AM 57.4769 34.8522 317° Northwest  Level FlightAware Approximate
05:24AM 57.5629 34.7024 317° Northwest  Level FlightAware Approximate
05:25AM 57.6487 34.5519 317° Northwest  Level FlightAware Approximate
05:26AM 57.6524 34.5299 313° West  Level FlightAware Approximate
05:27AM 57.7331 34.3693 313° West  Level FlightAware Approximate
05:28AM 57.8135 34.2080 313° West  Level FlightAware Approximate
05:29AM 57.8937 34.0460 313° West  Level FlightAware Approximate
05:30AM 57.9738 33.8832 313° West  Level FlightAware Approximate
05:31AM 58.0536 33.7197 313° West  Level FlightAware Approximate
05:32AM 58.1332 33.5555 313° West  Level FlightAware Approximate
05:33AM 58.2127 33.3907 313° West  Level FlightAware Approximate
05:34AM 58.2926 33.2262 313° West  Level FlightAware Approximate
05:35AM 58.3722 33.0610 313° West  Level FlightAware Approximate
05:35AM 56.4994 31.7669 313° West 426 490 34,000  Level FlightAware ADS-B (EVDA / DGP)
05:37AM 56.5337 31.3322 302° West 425 489 34,000  Level FlightAware ADS-B (EVDA / DGP)
05:38AM 56.5644 31.1217 285° West 420 483 34,000  Level FlightAware ADS-B (EVDA / DGP)
05:39AM 56.6165 30.9419 298° West 421 484 34,000  Level FlightAware ADS-B (EVDA / DGP)
05:40AM 56.6895 30.7792 309° West 423 487 34,000  Level FlightAware ADS-B (EVDA / DGP)
05:41AM 56.7618 30.5999 306° West 423 487 34,000  Level FlightAware ADS-B (EVDA / DGP)
05:42AM 56.8261 30.4297 305° West 425 489 34,000  Level FlightAware ADS-B (EVDA / DGP)
05:43AM 56.8935 30.2470 304° West 427 491 34,000  Level FlightAware ADS-B (EVDA / DGP)
05:44AM 56.9511 30.0899 304° West 428 493 34,000  Level FlightAware ADS-B (EVDA / DGP)
05:45AM 57.0185 29.9048 304° West 429 494 34,000  Level FlightAware ADS-B (EVDA / DGP)
05:46AM 57.0867 29.7160 304° West 430 495 34,000  Level FlightAware ADS-B (EVDA / DGP)
05:47AM 57.1568 29.5200 303° West 430 495 34,000  Level FlightAware ADS-B (EVDA / DGP)
05:48AM 57.2209 29.3394 303° West 430 495 34,000  Level FlightAware ADS-B (EVDA / DGP)
05:49AM 57.2866 29.1531 303° West 432 497 34,000  Level FlightAware ADS-B (EVDA / DGP)
05:50AM 57.3469 28.9811 303° West 431 496 34,000  Level FlightAware ADS-B (EVDA / DGP)
05:51AM 57.4163 28.7819 303° West 431 496 34,000  Level FlightAware ADS-B (EVDA / DGP)
05:52AM 57.4804 28.5960 303° West 432 497 34,000  Level FlightAware ADS-B (EVDA / DGP)
05:53AM 57.5446 28.4082 303° West 432 497 34,000  Level FlightAware ADS-B (EVDA / DGP)
05:54AM 57.6066 28.2257 302° West 431 496 34,000  Level FlightAware ADS-B (EVDA / DGP)
05:55AM 57.6678 28.0443 302° West 434 499 34,000  Level FlightAware ADS-B (EVDA / DGP)
05:56AM 57.7344 27.8456 302° West 435 501 34,000  Level FlightAware ADS-B (EVDA / DGP)
05:57AM 57.7990 27.6509 302° West 435 501 34,000  Level FlightAware ADS-B (EVDA / DGP)
05:58AM 57.8530 27.4503 297° West 436 502 34,000  Level FlightAware ADS-B (EVDA / DGP)
05:59AM 57.8939 27.2382 290° West 440 506 34,000  Level FlightAware ADS-B (EVDA / DGP)
06:00AM 57.9344 27.0242 290° West 439 505 34,000  Level FlightAware ADS-B (EVDA / DGP)
06:01AM 57.9750 26.8066 290° West 440 506 34,000  Level FlightAware ADS-B (EVDA / DGP)
06:02AM 58.0146 26.5930 289° West 439 505 34,000  Level FlightAware ADS-B (EVDA / DGP)
06:03AM 58.0544 26.3761 289° West 441 507 34,000  Level FlightAware ADS-B (EVDA / DGP)
06:04AM 58.0947 26.1527 289° West 442 509 34,000  Level FlightAware ADS-B (EVDA / DGP)
06:05AM 58.1329 25.9394 289° West 440 506 34,000  Level FlightAware ADS-B (EVDA / DGP)
06:06AM 58.1721 25.7177 289° West 442 509 34,000  Level FlightAware ADS-B (EVDA / DGP)
06:07AM 58.2108 25.4955 288° West 442 509 34,000  Level FlightAware ADS-B (EVDA / DGP)
06:08AM 58.2484 25.2770 288° West 442 509 34,000  Level FlightAware ADS-B (EVDA / DGP)
06:09AM 58.2780 25.1037 288° West 442 509 34,000  Level FlightAware ADS-B (EVDA / DGP)
06:10AM 58.3228 24.8381 288° West 442 509 34,000  Level FlightAware ADS-B (EVDA / DGP)
06:27AM 58.9007 21.0539 294° West 452 520 34,000  Level FlightAware ADS-B (ESKB)
06:28AM 58.9161 20.9625 288° West 450 518 34,000  Level FlightAware ADS-B (ESKB)
06:29AM 59.0094 20.3922 288° West 449 517 34,000  Level FlightAware ADS-B (ESKB)
06:30AM 59.0326 20.2481 287° West 449 517 34,000  Level FlightAware ADS-B (ESKB)
06:31AM 59.0584 20.0856 287° West 451 519 34,000  Level FlightAware ADS-B (ESKB)
06:31AM 59.0830 19.9286 287° West 449 517 34,000  Level FlightAware ADS-B (ESKB)
06:32AM 59.1067 19.7765 287° West 449 517 34,000  Level FlightAware ADS-B (ESKB)
06:33AM 59.1306 19.6222 287° West 451 519 34,000  Level FlightAware ADS-B (ESKB)
06:33AM 59.1537 19.4715 287° West 452 520 34,000  Level FlightAware ADS-B (ESKB)
06:34AM 59.1771 19.3178 287° West 452 520 34,000  Level FlightAware ADS-B (ESKB)
06:35AM 59.2018 19.1536 286° West 452 520 34,000  Level FlightAware ADS-B (ESKB)
06:36AM 59.2362 18.9218 286° West 453 521 34,000  Level FlightAware ADS-B (ESKB)
06:36AM 59.2582 18.7720 286° West 455 524 34,000  Level FlightAware ADS-B (ESKB)
06:37AM 59.2815 18.6126 286° West 455 524 34,000  Level FlightAware ADS-B (ESKB)
06:38AM 59.3037 18.4566 286° West 456 525 34,000  Level FlightAware ADS-B (ESKB)
06:38AM 59.3270 18.2937 286° West 455 524 34,000  Level FlightAware ADS-B (ESKB)
06:39AM 59.3488 18.1400 286° West 455 524 34,000  Level FlightAware ADS-B (ESKB)
06:40AM 59.3825 17.8993 285° West 457 526 34,000  Level FlightAware ADS-B (ESKB)
06:41AM 59.4035 17.7457 285° West 459 528 34,000  Level FlightAware ADS-B (ESKB)
06:41AM 59.4264 17.5778 285° West 459 528 34,000  Level FlightAware ADS-B (ESKB)
06:42AM 59.4441 17.4478 285° West 457 526 34,000  Level FlightAware ADS-B (ESKB)
06:43AM 59.4683 17.2663 285° West 456 525 34,000  Level FlightAware ADS-B (ESKB)
06:43AM 59.4901 17.1019 285° West 455 524 34,000  Level FlightAware ADS-B (ESKB)
06:44AM 59.5101 16.9493 285° West 457 526 34,000  Level FlightAware ADS-B (ESKB)
06:45AM 59.5317 16.7820 284° West 458 527 34,000  Level FlightAware ADS-B (ESKB)
06:45AM 59.5530 16.6155 284° West 460 529 34,000  Level FlightAware ADS-B (ESKB)
06:46AM 59.5743 16.4462 284° West 463 533 34,000  Level FlightAware ADS-B (ESKB)
06:47AM 59.5940 16.2890 284° West 465 535 34,000  Level FlightAware ADS-B (ESKB)
06:47AM 59.6147 16.1216 284° West 466 536 34,000  Level FlightAware ADS-B (ESKB)
06:48AM 59.6348 15.9581 284° West 465 535 34,000  Level FlightAware ADS-B (ESKB)
06:50AM 59.6834 15.5535 284° West 466 536 34,000 60 Level FlightAware ADS-B (ESKB)
07:21AM 60.6552 7.5991 283° West 478 550 36,000 60 Climbing FlightAware ADS-B (EGBP)
07:21AM 60.6728 7.4285 282° West 477 549 36,000  Level FlightAware ADS-B (EGBP)
07:22AM 60.6905 7.2544 282° West 478 550 36,000  Level FlightAware ADS-B (EGBP)
07:23AM 60.7076 7.0825 282° West 479 551 36,000  Level FlightAware ADS-B (EGBP)
07:23AM 60.7293 6.8630 282° West 478 550 36,000  Level FlightAware ADS-B (EGBP)
07:24AM 60.7467 6.6839 281° West 477 549 36,000  Level FlightAware ADS-B (EGBP)
07:25AM 60.7635 6.5073 281° West 478 550 36,000  Level FlightAware ADS-B (EGBP)
07:25AM 60.7762 6.3711 281° West 480 552 36,000  Level FlightAware ADS-B (EGBP)
07:26AM 60.7931 6.1904 281° West 482 555 36,000  Level FlightAware ADS-B (EGBP)
07:27AM 60.8082 6.0251 281° West 484 557 36,000  Level FlightAware ADS-B (EGBP)
07:27AM 60.8260 5.8271 281° West 486 559 36,000  Level FlightAware ADS-B (EGBP)
07:28AM 60.8408 5.6604 280° West 486 559 36,000  Level FlightAware ADS-B (EGBP)
07:30AM 60.8729 5.2832 280° West  Level Estimated
07:31AM 60.8926 5.0445 280° West  Level Estimated
07:32AM 60.9118 4.8056 280° West  Level Estimated
07:33AM 60.9307 4.5664 279° West  Level Estimated
07:34AM 60.9491 4.3269 279° West  Level Estimated
07:35AM 60.9671 4.0872 279° West  Level Estimated
07:36AM 60.9847 3.8471 279° West  Level Estimated
07:37AM 61.0018 3.6068 278° West  Level Estimated
07:38AM 61.0185 3.3663 278° West  Level Estimated
07:39AM 61.0348 3.1254 278° West  Level Estimated
07:40AM 61.0507 2.8844 278° West  Level Estimated
07:41AM 61.0661 2.6431 278° West  Level Estimated
07:42AM 61.0811 2.4016 277° West  Level Estimated
07:43AM 61.0957 2.1598 277° West  Level Estimated
07:44AM 61.1098 1.9179 277° West  Level Estimated
07:45AM 61.1235 1.6757 277° West  Level Estimated
07:46AM 61.1368 1.4333 277° West  Level Estimated
07:47AM 61.1496 1.1908 276° West  Level Estimated
07:48AM 61.1620 0.9480 276° West  Level Estimated
07:49AM 61.1740 0.7050 276° West  Level Estimated
07:50AM 61.1855 0.4618 276° West  Level Estimated
07:51AM 61.1966 0.2185 276° West  Level Estimated
07:52AM 61.2072 -0.0250 275° West  Level Estimated
07:53AM 61.2175 -0.2686 275° West  Level Estimated
07:54AM 61.2272 -0.5124 275° West  Level Estimated
07:55AM 61.2366 -0.7564 275° West  Level Estimated
07:56AM 61.2455 -1.0005 274° West  Level Estimated
07:57AM 61.2540 -1.2447 274° West  Level Estimated
07:58AM 61.2620 -1.4891 274° West  Level Estimated
07:59AM 61.2696 -1.7335 274° West  Level Estimated
08:00AM 61.2767 -1.9781 274° West  Level Estimated
08:01AM 61.2834 -2.2228 273° West  Level Estimated
08:02AM 61.2897 -2.4676 273° West  Level Estimated
08:03AM 61.2955 -2.7125 273° West  Level Estimated
08:04AM 61.3009 -2.9575 273° West  Level Estimated
08:05AM 61.3059 -3.2026 273° West  Level Estimated
08:06AM 61.3104 -3.4477 272° West  Level Estimated
08:07AM 61.3144 -3.6930 272° West  Level Estimated
08:08AM 61.3181 -3.9382 272° West  Level Estimated
08:09AM 61.3212 -4.1835 272° West  Level Estimated
08:10AM 61.3240 -4.4289 271° West  Level Estimated
08:11AM 61.3262 -4.6743 271° West  Level Estimated
08:12AM 61.3281 -4.9198 271° West  Level Estimated
08:13AM 61.3295 -5.1652 271° West  Level Estimated
08:14AM 61.3305 -5.4107 271° West  Level Estimated
08:15AM 61.3310 -5.6562 270° West  Level Estimated
08:16AM 61.3311 -5.9017 270° West  Level Estimated
08:17AM 61.3307 -6.1472 270° West  Level Estimated
08:18AM 61.3299 -6.3927 270° West  Level Estimated
08:19AM 61.3287 -6.6382 269° West  Level Estimated
08:20AM 61.3270 -6.8836 269° West  Level Estimated
08:21AM 61.3248 -7.1290 269° West  Level Estimated
08:22AM 61.3222 -7.3744 269° West  Level Estimated
08:23AM 61.3192 -7.6198 269° West  Level Estimated
08:24AM 61.3158 -7.8650 268° West  Level Estimated
08:25AM 61.3119 -8.1103 268° West  Level Estimated
08:26AM 61.3075 -8.3554 268° West  Level Estimated
08:27AM 61.3027 -8.6005 268° West  Level Estimated
08:28AM 61.2975 -8.8455 268° West  Level Estimated
08:29AM 61.2918 -9.0905 267° West  Level Estimated
08:30AM 61.2857 -9.3353 267° West  Level Estimated
08:31AM 61.2792 -9.5801 267° West  Level Estimated
08:32AM 61.2722 -9.8247 267° West  Level Estimated
08:33AM 61.2647 -10.0692 266° West  Level Estimated
08:34AM 61.2569 -10.3136 266° West  Level Estimated
08:35AM 61.2486 -10.5579 266° West  Level Estimated
08:36AM 61.2398 -10.8020 266° West  Level Estimated
08:37AM 61.2306 -11.0460 266° West  Level Estimated
08:38AM 61.2210 -11.2899 265° West  Level Estimated
08:39AM 61.2109 -11.5336 265° West  Level Estimated
08:40AM 61.2004 -11.7772 265° West  Level Estimated
08:41AM 61.1895 -12.0205 265° West  Level Estimated
08:42AM 61.1781 -12.2638 265° West  Level Estimated
08:43AM 61.1663 -12.5068 264° West  Level Estimated
08:44AM 61.1540 -12.7496 264° West  Level Estimated
08:45AM 61.1414 -12.9923 264° West  Level Estimated
08:46AM 61.1282 -13.2347 264° West  Level Estimated
08:47AM 61.1147 -13.4770 264° West  Level Estimated
08:48AM 61.1007 -13.7190 263° West  Level Estimated
08:49AM 61.0863 -13.9608 263° West  Level Estimated
08:50AM 61.0714 -14.2024 263° West  Level Estimated
08:51AM 61.0562 -14.4438 263° West  Level Estimated
08:52AM 61.0405 -14.6849 262° West  Level Estimated
08:53AM 61.0243 -14.9258 262° West  Level Estimated
08:54AM 61.0078 -15.1665 262° West  Level Estimated
08:55AM 60.9908 -15.4069 262° West  Level Estimated
08:56AM 60.9734 -15.6470 262° West  Level Estimated
08:57AM 60.9555 -15.8869 261° West  Level Estimated
08:58AM 60.9372 -16.1264 261° West  Level Estimated
08:59AM 60.9185 -16.3658 261° West  Level Estimated
09:00AM 60.8994 -16.6048 261° West  Level Estimated
09:01AM 60.8799 -16.8435 261° West  Level Estimated
09:02AM 60.8599 -17.0820 260° West  Level Estimated
09:03AM 60.8395 -17.3201 260° West  Level Estimated
09:04AM 60.8187 -17.5579 260° West  Level Estimated
09:05AM 60.7975 -17.7955 260° West  Level Estimated
09:06AM 60.7758 -18.0327 260° West  Level Estimated
09:07AM 60.7537 -18.2696 259° West  Level Estimated
09:08AM 60.7313 -18.5061 259° West  Level Estimated
09:09AM 60.7084 -18.7423 259° West  Level Estimated
09:10AM 60.6851 -18.9782 259° West  Level Estimated
09:11AM 60.6613 -19.2138 258° West  Level Estimated
09:12AM 60.6372 -19.4489 258° West  Level Estimated
09:13AM 60.6126 -19.6838 258° West  Level Estimated
09:14AM 60.5877 -19.9182 258° West  Level Estimated
09:15AM 60.5623 -20.1523 258° West  Level Estimated
09:16AM 60.5365 -20.3861 257° West  Level Estimated
09:17AM 60.5103 -20.6194 257° West  Level Estimated
09:18AM 60.4837 -20.8524 257° West  Level Estimated
09:19AM 60.4567 -21.0850 257° West  Level Estimated
09:20AM 60.4293 -21.3172 257° West  Level Estimated
09:21AM 60.4015 -21.5490 256° West  Level Estimated
09:22AM 60.3733 -21.7805 256° West  Level Estimated
09:23AM 60.3447 -22.0115 256° West  Level Estimated
09:24AM 60.3157 -22.2421 256° West  Level Estimated
09:25AM 60.2863 -22.4723 256° West  Level Estimated
09:26AM 60.2565 -22.7020 255° West  Level Estimated
09:27AM 60.2263 -22.9314 255° West  Level Estimated
09:28AM 60.1957 -23.1603 255° West  Level Estimated
09:29AM 60.1647 -23.3888 255° West  Level Estimated
09:30AM 60.1333 -23.6169 255° West  Level Estimated
09:31AM 60.1015 -23.8445 254° West  Level Estimated
09:32AM 60.0693 -24.0717 254° West  Level Estimated
09:33AM 60.0368 -24.2985 254° West  Level Estimated
09:34AM 60.0038 -24.5247 254° West  Level Estimated
09:35AM 59.9705 -24.7506 254° West  Level Estimated
09:36AM 59.9368 -24.9760 253° West  Level Estimated
09:37AM 59.9027 -25.2009 253° West  Level Estimated
09:38AM 59.8682 -25.4253 253° West  Level Estimated
09:39AM 59.8334 -25.6493 253° West  Level Estimated
09:40AM 59.7981 -25.8729 253° West  Level Estimated
09:41AM 59.7625 -26.0959 252° West  Level Estimated
09:42AM 59.7265 -26.3185 252° West  Level Estimated
09:43AM 59.6901 -26.5406 252° West  Level Estimated
09:44AM 59.6534 -26.7622 252° West  Level Estimated
09:45AM 59.6163 -26.9833 252° West  Level Estimated
09:46AM 59.5788 -27.2039 252° West  Level Estimated
09:47AM 59.5409 -27.4240 251° West  Level Estimated
09:48AM 59.5027 -27.6437 251° West  Level Estimated
09:49AM 59.4641 -27.8628 251° West  Level Estimated
09:50AM 59.4251 -28.0814 251° West  Level Estimated
09:51AM 59.3858 -28.2996 251° West  Level Estimated
09:52AM 59.3461 -28.5172 250° West  Level Estimated
09:53AM 59.3060 -28.7343 250° West  Level Estimated
09:54AM 59.2656 -28.9509 250° West  Level Estimated
09:55AM 59.2249 -29.1670 250° West  Level Estimated
09:56AM 59.1837 -29.3825 250° West  Level Estimated
09:57AM 59.1423 -29.5976 249° West  Level Estimated
09:58AM 59.1004 -29.8121 249° West  Level Estimated
09:59AM 59.0582 -30.0261 249° West  Level Estimated
10:00AM 59.0157 -30.2396 249° West  Level Estimated
10:01AM 58.9728 -30.4525 249° West  Level Estimated
10:02AM 58.9296 -30.6649 249° West  Level Estimated
10:03AM 58.8860 -30.8768 248° West  Level Estimated
10:04AM 58.8420 -31.0881 248° West  Level Estimated
10:05AM 58.7978 -31.2989 248° West  Level Estimated
10:06AM 58.7531 -31.5092 248° West  Level Estimated
10:07AM 58.7082 -31.7189 248° West  Level Estimated
10:08AM 58.6629 -31.9281 247° West  Level Estimated
10:09AM 58.6172 -32.1367 247° West  Level Estimated
10:10AM 58.5713 -32.3448 247° West  Level Estimated
10:11AM 58.5249 -32.5524 247° West  Level Estimated
10:12AM 58.4783 -32.7593 247° West  Level Estimated
10:13AM 58.4313 -32.9658 247° West  Level Estimated
10:14AM 58.3840 -33.1717 246° West  Level Estimated
10:15AM 58.3364 -33.3770 246° West  Level Estimated
10:16AM 58.2884 -33.5818 246° West  Level Estimated
10:17AM 58.2401 -33.7860 246° West  Level Estimated
10:18AM 58.1915 -33.9897 246° West  Level Estimated
10:19AM 58.1426 -34.1928 246° West  Level Estimated
10:20AM 58.0933 -34.3953 245° Southwest  Level Estimated
10:21AM 58.0437 -34.5973 245° Southwest  Level Estimated
10:22AM 57.9938 -34.7988 245° Southwest  Level Estimated
10:23AM 57.9436 -34.9996 245° Southwest  Level Estimated
10:24AM 57.8931 -35.1999 245° Southwest  Level Estimated
10:25AM 57.8422 -35.3997 245° Southwest  Level Estimated
10:26AM 57.7910 -35.5988 244° Southwest  Level Estimated
10:27AM 57.7396 -35.7974 244° Southwest  Level Estimated
10:28AM 57.6878 -35.9955 244° Southwest  Level Estimated
10:29AM 57.6357 -36.1929 244° Southwest  Level Estimated
10:30AM 57.5833 -36.3898 244° Southwest  Level Estimated
10:31AM 57.5306 -36.5862 243° Southwest  Level Estimated
10:32AM 57.4776 -36.7820 243° Southwest  Level Estimated
10:33AM 57.4243 -36.9771 243° Southwest  Level Estimated
10:34AM 57.3706 -37.1718 243° Southwest  Level Estimated
10:35AM 57.3167 -37.3658 243° Southwest  Level Estimated
10:36AM 57.2625 -37.5593 243° Southwest  Level Estimated
10:37AM 57.2080 -37.7523 243° Southwest  Level Estimated
10:38AM 57.1532 -37.9446 242° Southwest  Level Estimated
10:39AM 57.0981 -38.1364 242° Southwest  Level Estimated
10:40AM 57.0427 -38.3276 242° Southwest  Level Estimated
10:41AM 56.9870 -38.5182 242° Southwest  Level Estimated
10:42AM 56.9311 -38.7083 242° Southwest  Level Estimated
10:43AM 56.8748 -38.8978 242° Southwest  Level Estimated
10:44AM 56.8183 -39.0867 241° Southwest  Level Estimated
10:45AM 56.7615 -39.2751 241° Southwest  Level Estimated
10:46AM 56.7044 -39.4628 241° Southwest  Level Estimated
10:47AM 56.6470 -39.6501 241° Southwest  Level Estimated
10:48AM 56.5893 -39.8367 241° Southwest  Level Estimated
10:49AM 56.5313 -40.0228 241° Southwest  Level Estimated
10:50AM 56.4731 -40.2083 240° Southwest  Level Estimated
10:51AM 56.4146 -40.3932 240° Southwest  Level Estimated
10:52AM 56.3559 -40.5776 240° Southwest  Level Estimated
10:53AM 56.2968 -40.7614 240° Southwest  Level Estimated
10:54AM 56.2375 -40.9446 240° Southwest  Level Estimated
10:55AM 56.1779 -41.1273 240° Southwest  Level Estimated
10:56AM 56.1180 -41.3093 240° Southwest  Level Estimated
10:57AM 56.0579 -41.4909 239° Southwest  Level Estimated
10:58AM 55.9975 -41.6718 239° Southwest  Level Estimated
10:59AM 55.9369 -41.8522 239° Southwest  Level Estimated
11:00AM 55.8760 -42.0320 239° Southwest  Level Estimated
11:01AM 55.8148 -42.2113 239° Southwest  Level Estimated
11:02AM 55.7533 -42.3900 239° Southwest  Level Estimated
11:03AM 55.6916 -42.5681 238° Southwest  Level Estimated
11:04AM 55.6297 -42.7457 238° Southwest  Level Estimated
11:05AM 55.5675 -42.9227 238° Southwest  Level Estimated
11:05AM 63.1167 -55.0500 237° Southwest 330 380 36,000  Level Gander Center
11:06AM 55.5050 -43.0992 238° Southwest  Level Estimated
11:06AM 63.0833 -55.2833 253° West 410 472 36,000  Level Gander Center
11:07AM 55.4423 -43.2751 238° Southwest  Level Estimated
11:07AM 63.0167 -55.5167 238° Southwest 420 483 36,000  Level Gander Center
11:08AM 55.3781 -43.4539 238° Southwest  Level Estimated
11:08AM 62.9833 -55.7333 251° West 420 483 36,000  Level Gander Center
11:09AM 55.3136 -43.6321 238° Southwest  Level Estimated
11:10AM 55.2489 -43.8097 237° Southwest  Level Estimated
11:10AM 62.9000 -56.1833 248° West 410 472 36,000  Level Gander Center
11:11AM 62.8333 -56.4167 238° Southwest 420 483 36,000  Level Gander Center
11:12AM 62.7833 -56.6500 245° Southwest 420 483 36,000  Level Gander Center
11:13AM 62.7167 -56.8667 236° Southwest 420 483 36,000  Level Gander Center
11:14AM 62.6667 -57.0667 242° Southwest 410 472 36,000  Level Gander Center
11:15AM 62.6000 -57.2833 236° Southwest 410 472 36,000  Level Gander Center
11:16AM 62.5500 -57.5000 243° Southwest 420 483 36,000  Level Gander Center
11:17AM 62.5000 -57.7333 245° Southwest 420 483 36,000  Level Gander Center
11:18AM 62.4333 -57.9500 236° Southwest 420 483 36,000  Level Gander Center
11:21AM 62.3167 -58.4000 241° Southwest 400 460 36,000  Level Gander Center
11:22AM 62.2500 -58.6167 237° Southwest 420 483 36,000  Level Gander Center
11:22AM 62.1833 -58.8000 232° Southwest 420 483 36,000  Level Gander Center
11:23AM 62.1333 -58.9833 240° Southwest 410 472 36,000  Level Gander Center
11:24AM 62.0833 -59.1833 242° Southwest 420 483 36,000  Level Montreal Center
11:25AM 62.0167 -59.3333 227° Southwest 420 483 36,000  Level Montreal Center
11:26AM 61.9500 -59.5500 237° Southwest 410 472 36,000  Level Montreal Center
11:27AM 61.9000 -59.7333 240° Southwest 410 472 36,000  Level Montreal Center
11:28AM 61.8333 -60.0167 244° Southwest 410 472 36,000  Level Gander Center
11:29AM 61.7667 -60.1500 223° Southwest 410 472 36,000  Level Montreal Center
11:30AM 61.7000 -60.3333 233° Southwest 410 472 36,000  Level Montreal Center
11:31AM 61.6500 -60.5833 247° West 400 460 36,000  Level Montreal Center
11:32AM 61.5833 -60.7500 230° Southwest 410 472 36,000  Level Montreal Center
11:33AM 61.5167 -60.9667 237° Southwest 410 472 36,000  Level Montreal Center
11:34AM 61.4667 -61.1333 238° Southwest 410 472 36,000  Level Montreal Center
11:35AM 61.4000 -61.4167 244° Southwest 420 483 36,000  Level Gander Center
11:36AM 61.3333 -61.6333 237° Southwest 410 472 36,000  Level Gander Center
11:37AM 61.2833 -61.8000 238° Southwest 420 483 36,000  Level Gander Center
11:38AM 61.2167 -62.0000 235° Southwest 420 483 36,000  Level Gander Center
11:39AM 61.1500 -62.1833 233° Southwest 420 483 36,000  Level Gander Center
11:40AM 61.0833 -62.4167 239° Southwest 410 472 36,000  Level Gander Center
11:41AM 61.0167 -62.5833 231° Southwest 420 483 36,000  Level Gander Center
11:42AM 60.9333 -62.7833 229° Southwest 420 483 36,000  Level Gander Center
11:43AM 60.8667 -63.0167 240° Southwest 420 483 36,000  Level Gander Center
11:44AM 60.8000 -63.1833 231° Southwest 420 483 36,000  Level Gander Center
11:45AM 60.7333 -63.3833 236° Southwest 410 472 36,000  Level Gander Center
11:46AM 60.6667 -63.5833 236° Southwest 410 472 36,000  Level Gander Center
11:47AM 60.6167 -63.7833 243° Southwest 410 472 36,000  Level Gander Center
11:48AM 60.5333 -63.9833 230° Southwest 410 472 36,000  Level Gander Center
11:49AM 60.4667 -64.1500 231° Southwest 410 472 36,000  Level Gander Center
11:50AM 60.4000 -64.3500 236° Southwest 420 483 36,000  Level Gander Center
11:51AM 60.3333 -64.5333 234° Southwest 410 472 36,000  Level Gander Center
11:52AM 60.2500 -64.7000 225° Southwest 410 472 36,000  Level Gander Center
11:53AM 60.2000 -64.9000 243° Southwest 410 472 36,000  Level Gander Center
11:54AM 60.1333 -65.0833 234° Southwest 400 460 36,000  Level Gander Center
11:55AM 60.0500 -65.1667 207° Southwest 400 460 36,000  Level Montreal Center
11:56AM 59.9667 -65.3333 225° Southwest 400 460 36,000  Level Montreal Center
11:57AM 59.9000 -65.4833 228° Southwest 400 460 36,000  Level Montreal Center
11:58AM 59.8000 -65.6167 214° Southwest 400 460 36,000  Level Montreal Center
11:59AM 59.7167 -65.7833 225° Southwest 400 460 36,000  Level Montreal Center
12:00PM 59.6333 -65.9000 215° Southwest 400 460 36,000  Level Montreal Center
12:01PM 59.5500 -66.0667 225° Southwest 400 460 36,000  Level Montreal Center
12:02PM 59.4833 -66.1833 222° Southwest 400 460 36,000  Level Montreal Center
12:03PM 59.3667 -66.4167 226° Southwest 400 460 36,000  Level Gander Center
12:04PM 59.3000 -66.5333 222° Southwest 400 460 36,000  Level Gander Center
12:05PM 59.2167 -66.6833 223° Southwest 400 460 36,000  Level Gander Center
12:06PM 59.1333 -66.7667 207° Southwest 400 460 36,000  Level Montreal Center
12:07PM 59.0333 -66.9000 214° Southwest 400 460 36,000  Level Montreal Center
12:08PM 58.9667 -67.0500 229° Southwest 400 460 36,000  Level Montreal Center
12:09PM 58.8667 -67.1667 211° Southwest 400 460 36,000  Level Montreal Center
12:10PM 58.7833 -67.3667 231° Southwest 400 460 36,000  Level Gander Center
12:11PM 58.7000 -67.4667 212° Southwest 400 460 36,000  Level Montreal Center
12:12PM 58.6000 -67.6500 224° Southwest 400 460 36,000  Level Gander Center
12:13PM 58.5333 -67.8000 230° Southwest 400 460 36,000  Level Gander Center
12:14PM 58.4333 -67.9167 211° Southwest 400 460 36,000  Level Gander Center
12:15PM 58.3500 -68.0500 220° Southwest 400 460 36,000  Level Gander Center
12:16PM 58.2667 -68.2000 223° Southwest 400 460 36,000  Level Gander Center
12:17PM 58.2000 -68.2667 208° Southwest 410 472 36,000  Level Montreal Center
12:19PM 58.0333 -68.5333 220° Southwest 420 483 36,000  Level Gander Center
12:20PM 57.9500 -68.6500 217° Southwest 400 460 36,000  Level Gander Center
12:21PM 57.8500 -68.7833 215° Southwest 400 460 36,000  Level Gander Center
12:22PM 57.7667 -68.9167 221° Southwest 400 460 36,000  Level Gander Center
12:23PM 57.6833 -69.0333 217° Southwest 400 460 36,000  Level Gander Center
12:24PM 57.5833 -69.1333 208° Southwest 400 460 36,000  Level Gander Center
12:25PM 57.5000 -69.2667 221° Southwest 400 460 36,000  Level Gander Center
12:26PM 57.4000 -69.3833 212° Southwest 400 460 36,000  Level Gander Center
12:27PM 57.3167 -69.4500 203° Southwest 400 460 36,000  Level Montreal Center
12:28PM 57.2333 -69.5833 221° Southwest 400 460 36,000  Level Montreal Center
12:29PM 57.1333 -69.7000 212° Southwest 400 460 36,000  Level Montreal Center
12:30PM 57.0500 -69.8000 213° Southwest 400 460 36,000  Level Montreal Center
12:31PM 56.9500 -69.9333 216° Southwest 400 460 36,000  Level Montreal Center
12:32PM 56.8667 -70.0500 217° Southwest 400 460 36,000  Level Montreal Center
12:33PM 56.7667 -70.1500 209° Southwest 400 460 36,000  Level Montreal Center
12:34PM 56.6833 -70.2833 221° Southwest 400 460 36,000  Level Montreal Center
12:35PM 56.6000 -70.4000 218° Southwest 400 460 36,000  Level Montreal Center
12:36PM 56.5000 -70.5000 209° Southwest 400 460 36,000  Level Montreal Center
12:37PM 56.4000 -70.6333 216° Southwest 400 460 36,000  Level Montreal Center
12:38PM 56.3167 -70.7333 214° Southwest 400 460 36,000  Level Montreal Center
12:39PM 56.2167 -70.8500 213° Southwest 400 460 36,000  Level Montreal Center
12:40PM 56.1167 -70.9500 209° Southwest 400 460 36,000  Level Montreal Center
12:41PM 56.0333 -71.0833 222° Southwest 400 460 36,000  Level Montreal Center
12:42PM 55.9333 -71.1833 209° Southwest 400 460 36,000  Level Montreal Center
12:43PM 55.8500 -71.3167 222° Southwest 400 460 36,000  Level Montreal Center
12:44PM 55.7500 -71.4167 209° Southwest 410 472 36,000  Level Montreal Center
12:45PM 55.6500 -71.5500 217° Southwest 400 460 36,000  Level Montreal Center
12:46PM 55.5500 -71.6500 210° Southwest 410 472 36,000  Level Montreal Center
12:47PM 55.4500 -71.7500 210° Southwest 400 460 36,000  Level Montreal Center
12:48PM 55.3667 -71.8667 219° Southwest 400 460 36,000  Level Montreal Center
12:49PM 55.2833 -71.9667 214° Southwest 410 472 36,000  Level Montreal Center
12:50PM 55.1833 -72.0667 210° Southwest 410 472 36,000  Level Montreal Center
12:51PM 55.0833 -72.2000 217° Southwest 410 472 36,000  Level Montreal Center
12:52PM 54.9833 -72.3000 210° Southwest 410 472 36,000  Level Montreal Center
12:53PM 54.8833 -72.4167 214° Southwest 410 472 36,000  Level Montreal Center
12:54PM 54.7833 -72.5167 210° Southwest 410 472 36,000  Level Montreal Center
12:55PM 54.6833 -72.6167 210° Southwest 420 483 36,000  Level Montreal Center
12:56PM 54.6000 -72.7333 219° Southwest 410 472 36,000  Level Montreal Center
12:57PM 54.5000 -72.8667 218° Southwest 410 472 36,000  Level Montreal Center
12:58PM 54.4000 -72.9500 206° Southwest 410 472 36,000  Level Montreal Center
12:59PM 54.3000 -73.0500 210° Southwest 410 472 36,000  Level Montreal Center
01:00PM 54.2000 -73.1667 214° Southwest 410 472 36,000  Level Montreal Center
01:01PM 54.1167 -73.2667 215° Southwest 410 472 36,000  Level Montreal Center
01:02PM 54.0167 -73.3833 214° Southwest 410 472 36,000  Level Montreal Center
01:03PM 53.9167 -73.4833 211° Southwest 410 472 36,000  Level Montreal Center
01:04PM 53.8167 -73.5667 206° Southwest 410 472 36,000  Level Montreal Center
01:05PM 53.7167 -73.6833 215° Southwest 410 472 36,000  Level Montreal Center
01:06PM 53.6167 -73.7833 211° Southwest 410 472 36,000  Level Montreal Center
01:07PM 53.5167 -73.8333 197° South 410 472 36,000  Level Montreal Center
01:08PM 53.4167 -73.9333 211° Southwest 410 472 36,000  Level Montreal Center
01:09PM 53.3000 -74.0167 203° Southwest 410 472 36,000  Level Montreal Center
01:10PM 53.2000 -74.1000 207° Southwest 410 472 36,000  Level Montreal Center
01:11PM 53.1000 -74.2000 211° Southwest 410 472 36,000  Level Montreal Center
01:12PM 53.0000 -74.2833 207° Southwest 410 472 36,000  Level Montreal Center
01:13PM 52.9167 -74.3667 211° Southwest 410 472 36,000  Level Montreal Center
01:14PM 52.8000 -74.4667 207° Southwest 410 472 36,000  Level Montreal Center
01:15PM 52.7000 -74.5500 207° Southwest 410 472 36,000  Level Montreal Center
01:16PM 52.5833 -74.6000 195° South 410 472 36,000  Level Montreal Center
01:17PM 52.5000 -74.7167 220° Southwest 410 472 36,000  Level Montreal Center
01:18PM 52.3833 -74.7833 199° South 410 472 36,000  Level Montreal Center
01:19PM 52.2833 -74.8667 207° Southwest 390 449 36,000  Level Montreal Center
01:20PM 52.1667 -74.9500 204° Southwest 410 472 36,000  Level Montreal Center
01:21PM 52.0667 -75.0333 207° Southwest 410 472 36,000  Level Montreal Center
01:22PM 51.9500 -75.1167 204° Southwest 430 495 36,000  Level Montreal Center
01:23PM 51.8500 -75.2000 207° Southwest 420 483 36,000  Level Montreal Center
01:24PM 51.7500 -75.2833 207° Southwest 420 483 36,000  Level Montreal Center
01:25PM 51.6500 -75.3667 207° Southwest 410 472 36,000  Level Montreal Center
01:26PM 51.5333 -75.4500 204° Southwest 410 472 36,000  Level Montreal Center
01:27PM 51.4333 -75.5333 207° Southwest 420 483 36,000  Level Montreal Center
01:28PM 51.3333 -75.5833 197° South 420 483 36,000  Level Montreal Center
01:29PM 51.2333 -75.6667 208° Southwest 410 472 36,000  Level Montreal Center
01:30PM 51.1167 -75.7500 204° Southwest 420 483 36,000  Level Montreal Center
01:31PM 51.0167 -75.8333 208° Southwest 420 483 36,000  Level Montreal Center
01:32PM 50.9167 -75.9167 208° Southwest 410 472 36,000  Level Montreal Center
01:33PM 50.8000 -76.0000 204° Southwest 420 483 36,000  Level Montreal Center
01:34PM 50.7000 -76.0667 203° Southwest 420 483 36,000  Level Montreal Center
01:35PM 50.6000 -76.1500 208° Southwest 420 483 36,000  Level Montreal Center
01:36PM 50.4833 -76.2333 204° Southwest 420 483 36,000  Level Montreal Center
01:37PM 50.3833 -76.3167 208° Southwest 420 483 36,000  Level Montreal Center
01:38PM 50.2833 -76.3833 203° Southwest 420 483 36,000  Level Montreal Center
01:39PM 50.1833 -76.4667 208° Southwest 420 483 36,000  Level Montreal Center
01:40PM 50.0500 -76.5500 202° Southwest 420 483 36,000  Level Montreal Center
01:41PM 49.9500 -76.6167 203° Southwest 420 483 36,000  Level Montreal Center
01:42PM 49.8333 -76.7000 205° Southwest 420 483 36,000  Level Montreal Center
01:43PM 49.7333 -76.7667 203° Southwest 420 483 36,000  Level Montreal Center
01:44PM 49.6167 -76.8500 205° Southwest 420 483 36,000  Level Montreal Center
01:45PM 49.5333 -76.9167 207° Southwest 400 460 36,000  Level Montreal Center
01:46PM 49.4167 -76.9667 196° South 430 495 36,000  Level Montreal Center
01:47PM 49.3167 -77.0500 209° Southwest 430 495 36,000  Level Montreal Center
01:49PM 49.1333 -77.1333 197° South 420 483 36,000  Level Toronto Center
01:50PM 49.0333 -77.2167 209° Southwest 420 483 36,000  Level Toronto Center
01:51PM 48.9167 -77.2667 196° South 420 483 36,000  Level Toronto Center
01:52PM 48.8333 -77.3500 213° Southwest 430 495 36,000  Level Toronto Center
01:53PM 48.7167 -77.4333 205° Southwest 430 495 36,000  Level Toronto Center
01:54PM 48.6000 -77.4833 196° South 430 495 36,000  Level Toronto Center
01:55PM 48.5000 -77.5667 209° Southwest 430 495 36,000  Level Toronto Center
01:56PM 48.3833 -77.6500 205° Southwest 430 495 36,000  Level Toronto Center
01:57PM 48.2833 -77.7000 198° South 430 495 36,000  Level Toronto Center
01:58PM 48.1667 -77.7833 205° Southwest 430 495 36,000  Level Toronto Center
01:59PM 48.0500 -77.8667 206° Southwest 430 495 36,000  Level Toronto Center
02:00PM 47.9333 -77.9167 196° South 430 495 36,000  Level Toronto Center
02:01PM 47.8333 -78.0000 209° Southwest 430 495 36,000  Level Toronto Center
02:02PM 47.7333 -78.0500 199° South 430 495 36,000  Level Toronto Center
02:03PM 47.6167 -78.1167 201° Southwest 430 495 36,000  Level Toronto Center
02:04PM 47.5000 -78.1833 201° Southwest 430 495 36,000  Level Toronto Center
02:05PM 47.3833 -78.2500 201° Southwest 430 495 36,000  Level Toronto Center
02:06PM 47.2833 -78.3000 199° South 430 495 36,000  Level Toronto Center
02:07PM 47.1500 -78.3833 203° Southwest 430 495 36,000  Level Toronto Center
02:08PM 47.0667 -78.4333 202° Southwest 430 495 36,000  Level Toronto Center
02:09PM 46.9500 -78.4833 196° South 430 495 36,000  Level Toronto Center
02:10PM 46.8333 -78.5667 206° Southwest 430 495 36,000  Level Toronto Center
02:11PM 46.7333 -78.6167 199° South 430 495 36,000  Level Toronto Center
02:12PM 46.6167 -78.6833 201° Southwest 420 483 36,000  Level Toronto Center
02:13PM 46.5167 -78.7333 199° South 420 483 36,000  Level Toronto Center
02:14PM 46.4000 -78.8167 206° Southwest 420 483 36,000  Level Toronto Center
02:15PM 46.2833 -78.8667 196° South 420 483 36,000  Level Toronto Center
02:16PM 46.1833 -78.9333 205° Southwest 420 483 36,000  Level Toronto Center
02:17PM 46.0667 -78.9833 197° South 420 483 36,000  Level Toronto Center
02:18PM 45.9667 -79.0333 199° South 420 483 36,000  Level Toronto Center
02:19PM 45.8500 -79.1000 202° Southwest 420 483 36,000  Level Toronto Center
02:25PM 45.1603 -79.4940 202° Southwest 427 491 36,000  Level FlightAware ADS-B (CYKF)
02:26PM 45.0998 -79.5255 200° South 427 491 36,000  Level FlightAware ADS-B (CYKF)
02:26PM 45.0130 -79.5708 200° South 426 490 36,000  Level FlightAware ADS-B (CYKF)
02:27PM 44.9525 -79.6023 200° South 425 489 36,000  Level FlightAware ADS-B (CYOW)
02:28PM 44.9697 -79.5933 20° North 424 488 36,000  Level FlightAware ADS-B (CYKF)
02:30PM 44.6388 -79.7640 200° South 423 487 36,000  Level FlightAware ADS-B (CYKF)
02:31PM 44.5039 -79.8623 207° Southwest 420 483 36,000  Level FlightAware ADS-B (CYKF)
02:32PM 44.4417 -79.9195 213° Southwest 420 483 36,000  Level FlightAware ADS-B (CYKF)
02:32PM 44.3690 -79.9851 213° Southwest 421 484 36,000  Level FlightAware ADS-B (CYKF)
02:33PM 44.3124 -80.0358 213° Southwest 422 486 36,000  Level FlightAware ADS-B (CYKF)
02:34PM 44.2425 -80.0984 213° Southwest 425 489 36,000  Level FlightAware ADS-B (CYKF)
02:34PM 44.1784 -80.1557 213° Southwest 425 489 36,000  Level FlightAware ADS-B (CYKF)
02:35PM 44.1108 -80.2160 213° Southwest 424 488 36,000  Level FlightAware ADS-B (CYKF)
02:36PM 44.0416 -80.2773 213° Southwest 422 486 36,000  Level FlightAware ADS-B (CYKF)
02:36PM 43.9781 -80.3333 212° Southwest 422 486 36,000  Level FlightAware ADS-B (CYKF)
02:37PM 43.9196 -80.3849 212° Southwest 424 488 36,000  Level FlightAware ADS-B (CYKF)
02:38PM 43.8506 -80.4458 212° Southwest 424 488 36,000  Level FlightAware ADS-B
02:38PM 43.7768 -80.5106 212° Southwest 424 488 36,000  Level FlightAware ADS-B (CYKF)
02:39PM 43.7094 -80.5696 212° Southwest 425 489 36,000  Level FlightAware ADS-B (CYKF)
02:40PM 43.6680 -80.6058 212° Southwest 426 490 36,000  Level FlightAware ADS-B (CYKF)
02:40PM 43.5770 -80.6851 212° Southwest 427 491 36,000  Level FlightAware ADS-B (CYKF)
02:41PM 43.5092 -80.7440 212° Southwest 426 490 36,000  Level FlightAware ADS-B (CYKF)
02:42PM 43.4470 -80.7979 212° Southwest 426 490 36,000  Level FlightAware ADS-B (CYKF)
02:42PM 43.3764 -80.8589 212° Southwest 426 490 36,000  Level FlightAware ADS-B (CYKF)
02:43PM 43.3122 -80.9141 212° Southwest 426 490 36,000  Level FlightAware ADS-B
02:44PM 43.2591 -80.9597 212° Southwest 427 491 36,000  Level FlightAware ADS-B
02:44PM 43.1776 -81.0297 212° Southwest 426 490 36,000  Level FlightAware ADS-B (CYKF)
02:45PM 43.0775 -81.1153 212° Southwest 426 490 36,000  Level FlightAware ADS-B (CYKF)
02:46PM 43.0075 -81.1669 208° Southwest 430 495 36,000  Level FlightAware ADS-B (CYKF)
02:47PM 42.9356 -81.2114 204° Southwest 431 496 36,000  Level FlightAware ADS-B (CYKF)
02:47PM 42.8620 -81.2578 205° Southwest 431 496 36,000  Level FlightAware ADS-B (CYKF)
02:48PM 42.7892 -81.3026 204° Southwest 430 495 36,000  Level FlightAware ADS-B (CYKF)
02:49PM 42.6825 -81.3681 204° Southwest 428 493 36,000  Level FlightAware ADS-B (CYKF)
02:50PM 42.6171 -81.4081 204° Southwest 428 493 36,000  Level FlightAware ADS-B (CYKF)
02:50PM 42.5366 -81.4573 204° Southwest 429 494 36,000  Level FlightAware ADS-B (CYKF)
02:51PM 42.4942 -81.4832 204° Southwest 430 495 36,000  Level FlightAware ADS-B (CYKF)
02:52PM 42.4147 -81.5316 204° Southwest 429 494 36,000  Level FlightAware ADS-B (CYKF)
02:53PM 42.2833 -81.6000 204° Southwest 430 495 36,000  Level Toronto Center
02:54PM 42.1636 -81.6833 207° Southwest 427 491 36,000  Level Cleveland Center
02:55PM 42.0350 -81.7617 204° Southwest 430 495 36,000  Level Cleveland Center
02:56PM 41.9256 -81.8258 204° Southwest 428 493 36,000  Level Cleveland Center
02:57PM 41.8164 -81.8911 204° Southwest 429 494 36,000  Level Cleveland Center
02:58PM 41.7061 -81.9564 204° Southwest 432 497 36,000  Level Cleveland Center
02:59PM 41.5956 -82.0208 204° Southwest 432 497 36,000  Level Cleveland Center
03:00PM 41.4864 -82.0861 204° Southwest 431 496 36,000  Level Cleveland Center
03:01PM 41.3594 -82.1583 203° Southwest 427 491 36,000  Level Cleveland Center
03:02PM 41.2436 -82.2017 196° South 432 497 36,000  Level Cleveland Center
03:03PM 41.1275 -82.2444 196° South 431 496 36,000  Level Cleveland Center
03:04PM 41.0108 -82.2850 195° South 432 497 36,000  Level Cleveland Center
03:05PM 40.8944 -82.3264 195° South 432 497 36,000  Level Cleveland Center
03:06PM 40.7578 -82.3753 195° South 432 497 36,000  Level Indianapolis Center
03:07PM 40.6408 -82.4164 195° South 431 496 36,000  Level Indianapolis Center
03:08PM 40.5258 -82.4575 195° South 428 493 36,000  Level Indianapolis Center
03:10PM 40.4100 -82.4992 195° South 427 491 36,000  Level Indianapolis Center
03:15PM 39.7524 -82.6157 195° South 435 501 36,000  Level FlightAware ADS-B (KPMH)
03:15PM 39.6895 -82.6198 183° South 434 499 36,000  Level FlightAware ADS-B (KPMH)
03:16PM 39.6123 -82.6250 183° South 432 497 36,000  Level FlightAware ADS-B (KPMH)
03:17PM 39.5508 -82.6291 183° South 430 495 36,000  Level FlightAware ADS-B (KPMH)
03:17PM 39.4743 -82.6342 183° South 429 494 36,000  Level FlightAware ADS-B (KPMH)
03:18PM 39.3873 -82.6401 183° South 429 494 36,000  Level FlightAware ADS-B (KPMH)
03:19PM 39.2680 -82.6481 183° South 428 493 36,000  Level FlightAware ADS-B (KPMH)
03:20PM 39.1805 -82.6539 183° South 427 491 36,000  Level FlightAware ADS-B (KPMH)
03:21PM 39.0606 -82.6579 181° South 435 501 36,000  Level FlightAware ADS-B (KPMH)
03:21PM 39.0031 -82.6317 161° South 451 519 36,000  Level FlightAware ADS-B (KPMH)
03:22PM 38.9194 -82.5824 155° Southeast 450 518 36,000  Level FlightAware ADS-B (KPMH)
03:23PM 38.8363 -82.5331 155° Southeast 452 520 36,000  Level FlightAware ADS-B (KPMH)
03:24PM 38.7053 -82.4964 155° Southeast 432 497 36,000  Level Indianapolis Center
03:25PM 38.6000 -82.5461 200° South 415 478 36,000  Level Indianapolis Center
03:26PM 38.4747 -82.6097 202° Southwest 414 476 36,000  Level Indianapolis Center
03:27PM 38.3667 -82.6656 202° Southwest 416 479 36,000  Level Indianapolis Center
03:28PM 38.2575 -82.7211 202° Southwest 420 483 36,000  Level Indianapolis Center
03:29PM 38.1492 -82.7767 202° Southwest 418 481 36,000  Level Indianapolis Center
03:30PM 38.0425 -82.8344 203° Southwest 414 476 36,000  Level Indianapolis Center
03:31PM 37.9183 -82.8958 201° Southwest 411 473 36,000  Level Indianapolis Center
03:32PM 37.8119 -82.9503 202° Southwest 412 474 36,000  Level Indianapolis Center
03:33PM 37.7061 -83.0039 202° Southwest 409 471 36,000  Level Indianapolis Center
03:34PM 37.5886 -83.0147 184° South 419 482 36,000  Level Indianapolis Center
03:35PM 37.4708 -83.0228 183° South 422 486 36,000  Level Indianapolis Center
03:36PM 37.3506 -83.0286 182° South 429 494 36,000  Level Indianapolis Center
03:37PM 37.2142 -83.0406 184° South 428 493 36,000  Level Indianapolis Center
03:38PM 37.1153 -83.1047 207° Southwest 405 466 36,000  Level Indianapolis Center
03:40PM 37.0172 -83.1700 208° Southwest 403 464 36,000  Level Indianapolis Center
03:41PM 36.9197 -83.2342 208° Southwest 400 460 36,000  Level Indianapolis Center
03:42PM 36.8047 -83.3097 208° Southwest 402 463 36,000  Level Indianapolis Center
03:43PM 36.7056 -83.3753 208° Southwest 404 465 36,000  Level Indianapolis Center
03:44PM 36.6050 -83.4414 208° Southwest 406 467 36,000  Level Indianapolis Center
03:45PM 36.5039 -83.5069 208° Southwest 409 471 36,000 360 Level Indianapolis Center
03:46PM 36.4047 -83.5725 208° Southwest 408 470 36,800 480 Climbing Indianapolis Center
03:47PM 36.2839 -83.6514 208° Southwest 408 470 37,000 60 Climbing Indianapolis Center
03:48PM 36.1825 -83.7169 208° Southwest 411 473 37,000  Level Indianapolis Center
03:49PM 36.0825 -83.7811 207° Southwest 405 466 37,000  Level Indianapolis Center
03:50PM 35.9817 -83.8458 207° Southwest 406 467 37,000  Level Indianapolis Center
03:56PM 35.2944 -84.0427 207° Southwest 410 472 37,000  Level FlightAware ADS-B (KDZJ)
03:56PM 35.2246 -84.0595 191° South 409 471 37,000  Level FlightAware ADS-B (KDZJ)
03:57PM 35.1253 -84.0830 191° South 408 470 37,000  Level FlightAware ADS-B (KDZJ)
03:58PM 35.0635 -84.0981 191° South 407 468 37,000  Level FlightAware ADS-B (KDZJ)
03:59PM 34.9768 -84.1187 191° South 407 468 37,000  Level FlightAware ADS-B (KDZJ)
03:59PM 34.9035 -84.1362 191° South 407 468 37,000  Level FlightAware ADS-B (KDZJ)
04:00PM 34.8309 -84.1533 191° South 407 468 37,000  Level FlightAware ADS-B (KDZJ)
04:01PM 34.7622 -84.1697 191° South 408 470 37,000  Level FlightAware ADS-B (KDZJ)
04:01PM 34.6923 -84.1864 191° South 411 473 37,000  Level FlightAware ADS-B (KDZJ)
04:02PM 34.6063 -84.2068 191° South 411 473 37,000  Level FlightAware ADS-B (KDZJ)
04:03PM 34.5383 -84.2228 191° South 411 473 37,000  Level FlightAware ADS-B (KDZJ)
04:03PM 34.4570 -84.2419 191° South 412 474 37,000  Level FlightAware ADS-B (KDZJ)
04:04PM 34.3800 -84.2600 191° South 412 474 37,000  Level FlightAware ADS-B (KDZJ)
04:05PM 34.3083 -84.2770 191° South 409 471 37,000  Level FlightAware ADS-B (KDZJ)
04:05PM 34.2309 -84.2951 191° South 409 471 37,000  Level FlightAware ADS-B (KDZJ)
04:06PM 34.1560 -84.3126 191° South 409 471 37,000  Level FlightAware ADS-B (KDZJ)
04:07PM 34.0835 -84.3295 191° South 398 458 37,000  Level FlightAware ADS-B (KDZJ)
04:07PM 34.0094 -84.3467 191° South 396 456 37,000  Level FlightAware ADS-B (KDZJ)
04:08PM 33.9378 -84.3644 191° South 413 475 37,000  Level Atlanta Center
04:09PM 33.8272 -84.3914 191° South 406 467 37,000  Level Atlanta Center
04:10PM 33.7186 -84.4158 191° South 408 470 37,000  Level Atlanta Center
04:11PM 33.6036 -84.4378 189° South 408 470 37,000  Level Atlanta Center
04:12PM 33.5014 -84.4350 179° South 413 475 37,000  Level Atlanta Center
04:13PM 33.3825 -84.4319 179° South 418 481 37,000  Level Atlanta Center
04:14PM 33.2675 -84.4314 180° South 418 481 37,000  Level Atlanta Center
04:15PM 33.1528 -84.4283 179° South 418 481 37,000  Level Atlanta Center
04:16PM 33.0381 -84.4278 180° South 418 481 37,000  Level Atlanta Center
04:17PM 32.9108 -84.4222 178° South 418 481 37,000  Level Atlanta Center
04:18PM 32.7939 -84.4219 180° South 418 481 37,000  Level Atlanta Center
04:19PM 32.6792 -84.4189 179° South 418 481 37,000  Level Atlanta Center
04:20PM 32.5683 -84.4136 178° South 418 481 37,000  Level Atlanta Center
04:21PM 32.4536 -84.4131 180° South 418 481 37,000  Level Atlanta Center
04:22PM 32.3431 -84.4100 179° South 413 475 37,000  Level Atlanta Center
04:23PM 32.2303 -84.4097 180° South 413 475 37,000  Level Atlanta Center
04:24PM 32.1197 -84.4067 179° South 408 470 37,000  Level Atlanta Center
04:25PM 32.0092 -84.4039 179° South 401 461 37,000  Level Atlanta Center
04:26PM 31.9006 -84.4008 179° South 401 461 37,000  Level Atlanta Center
04:29PM 31.6189 -84.3956 179° South 395 455 37,000  Level Jacksonville Center
04:35PM 30.9598 -84.3818 179° South 374 430 37,000  Level FlightAware ADS-B (KTLH)
04:36PM 30.8956 -84.3805 179° South 374 430 37,000  Level FlightAware ADS-B (KTLH)
04:37PM 30.7962 -84.3787 179° South 377 434 37,000  Level FlightAware ADS-B (KTLH)
04:37PM 30.7309 -84.3774 179° South 378 435 37,000  Level FlightAware ADS-B (KTLH)
04:38PM 30.6782 -84.3761 179° South 379 436 37,000  Level FlightAware ADS-B (KTLH)
04:38PM 30.6257 -84.3706 175° South 392 451 37,000  Level FlightAware ADS-B (KTLH)
04:39PM 30.5685 -84.3574 169° South 410 472 37,000  Level FlightAware ADS-B (KTLH)
04:39PM 30.4935 -84.3281 161° South 427 491 37,000  Level FlightAware ADS-B (KTLH)
04:40PM 30.4242 -84.2873 153° Southeast 445 512 37,000  Level FlightAware ADS-B (KTLH)
04:41PM 30.3058 -84.2097 150° Southeast 445 512 37,000 180 Level FlightAware ADS-B (KTLH)
04:42PM 30.2291 -84.1597 151° Southeast 445 512 37,400 840 Climbing FlightAware ADS-B (KTLH)
04:43PM 30.1565 -84.1124 151° Southeast 448 516 38,200 1,020 Climbing FlightAware ADS-B (KTLH)
04:43PM 30.0897 -84.0691 151° Southeast 452 520 38,800 540 Climbing FlightAware ADS-B (KTLH)
04:44PM 30.0144 -84.0199 150° Southeast 447 514 39,000 60 Climbing FlightAware ADS-B (KTLH)
04:45PM 29.8835 -83.9348 151° Southeast 434 499 39,000  Level FlightAware ADS-B (KTLH)
04:46PM 29.8075 -83.8883 151° Southeast 441 507 39,000  Level Jacksonville Center
04:47PM 29.7017 -83.8178 150° Southeast 436 502 39,000  Level Jacksonville Center
04:48PM 29.5933 -83.7500 151° Southeast 436 502 39,000  Level Jacksonville Center
04:49PM 29.4894 -83.6822 150° Southeast 436 502 39,000  Level Jacksonville Center
04:50PM 29.3814 -83.6122 151° Southeast 436 502 39,000  Level Jacksonville Center
04:51PM 29.2733 -83.5425 151° Southeast 441 507 39,000  Level Jacksonville Center
04:57PM 28.6399 -83.1413 151° Southeast 442 509 39,000  Level FlightAware ADS-B (KMCO)
04:57PM 28.5737 -83.0998 151° Southeast 444 511 39,000  Level FlightAware ADS-B (KMCO)
04:59PM 28.4180 -83.0021 151° Southeast 446 513 39,000  Level FlightAware ADS-B (KMCO)
04:59PM 28.3376 -82.9518 151° Southeast 448 516 39,000  Level FlightAware ADS-B (KMCO)
05:00PM 28.2764 -82.9136 151° Southeast 449 517 39,000  Level FlightAware ADS-B (KMCO)
05:01PM 28.2014 -82.8668 151° Southeast 449 517 39,000  Level FlightAware ADS-B (KMCO)
05:02PM 28.0537 -82.7748 151° Southeast 448 516 39,000  Level FlightAware ADS-B (KMCO)
05:03PM 27.9883 -82.7341 151° Southeast 448 516 39,000  Level FlightAware ADS-B (KMCO)
05:03PM 27.9223 -82.6932 151° Southeast 448 516 39,000  Level FlightAware ADS-B (KMCO)
05:04PM 27.8400 -82.6401 150° Southeast 455 524 39,000  Level FlightAware ADS-B (KMCO)
05:05PM 27.7628 -82.5878 149° Southeast 454 522 39,000  Level FlightAware ADS-B (KMCO)
05:05PM 27.7314 -82.5729 157° South 423 487 39,000  Level FlightAware ADS-B (KMCO)
05:05PM 27.6891 -82.5651 171° South 395 455 39,000  Level FlightAware ADS-B (KMCO)
05:08PM 27.3978 -82.5613 179° South 393 452 39,000  Level FlightAware ADS-B (KMCO)
05:10PM 27.2278 -82.5592 179° South 394 453 39,000  Level FlightAware ADS-B (KMCO)
05:10PM 27.1415 -82.5580 179° South 392 451 39,000  Level FlightAware ADS-B (KMCO)
05:11PM 27.0837 -82.5571 179° South 390 449 39,000  Level FlightAware ADS-B (KMCO)
05:12PM 27.0162 -82.5564 179° South 390 449 39,000  Level FlightAware ADS-B (KMCO)
05:13PM 26.9141 -82.5552 179° South 392 451 39,000  Level FlightAware ADS-B (KMCO)
05:14PM 26.7411 -82.5530 179° South 396 456 39,000  Level FlightAware ADS-B (KMCO)
05:15PM 26.6698 -82.5521 179° South 397 457 39,000  Level FlightAware ADS-B (KMCO)
05:15PM 26.5978 -82.5511 179° South 398 458 39,000  Level FlightAware ADS-B (KMCO)
05:16PM 26.5210 -82.5502 179° South 399 459 39,000  Level FlightAware ADS-B (KMCO)
05:17PM 26.4502 -82.5492 179° South 401 461 39,000  Level FlightAware ADS-B (KMCO)
05:17PM 26.3737 -82.5483 179° South 402 463 39,000  Level FlightAware ADS-B (KMCO)
05:18PM 26.2637 -82.5468 179° South 401 461 39,000  Level FlightAware ADS-B (KMCO)
05:19PM 26.1485 -82.5452 179° South 400 460 39,000  Level FlightAware ADS-B (KMCO)
05:20PM 26.0380 -82.5440 179° South 399 459 39,000  Level FlightAware ADS-B (KMCO)
05:21PM 25.9638 -82.5431 179° South 399 459 39,000  Level FlightAware ADS-B (KMCO)
05:22PM 25.9232 -82.5426 179° South 400 460 39,000  Level FlightAware ADS-B (KMCO)
05:22PM 25.8142 -82.5412 179° South 404 465 39,000  Level FlightAware ADS-B (KMCO)
05:23PM 25.7397 -82.5403 179° South 406 467 39,000  Level FlightAware ADS-B (KMCO)
05:24PM 25.6636 -82.5394 179° South 408 470 39,000  Level FlightAware ADS-B (KMCO)
05:24PM 25.5893 -82.5384 179° South 409 471 39,000  Level FlightAware ADS-B (KMCO)
05:25PM 25.5164 -82.5374 179° South 410 472 39,000  Level FlightAware ADS-B (KMCO)
05:26PM 25.4669 -82.5400 179° South 404 465 39,000  Level Miami Center
05:27PM 25.3542 -82.5394 180° South 404 465 39,000  Level Miami Center
05:28PM 25.2394 -82.5386 180° South 404 465 39,000 -300 Level Miami Center
05:29PM 25.1247 -82.5356 179° South 404 465 38,500 -780 Descending Miami Center
05:30PM 25.0081 -82.5325 179° South 415 478 37,500 -1,020 Descending Miami Center
05:31PM 24.8911 -82.5339 181° South 420 483 36,500 -1,020 Descending Miami Center
05:32PM 24.7742 -82.5308 179° South 420 483 35,500 -1,260 Descending Miami Center
05:33PM 24.6594 -82.5325 181° South 420 483 34,000 -1,800 Descending Miami Center
05:34PM 24.5469 -82.5272 178° South 420 483 32,000 -2,040 Descending Miami Center
05:35PM 24.4383 -82.5269 180° South 406 467 30,000 -1,980 Descending Miami Center
05:36PM 24.3297 -82.5242 179° South 393 452 28,100 -1,980 Descending Miami Center
05:37PM 24.2294 -82.5267 181° South 388 447 26,100 -1,920 Descending Miami Center
05:38PM 24.1231 -82.5239 179° South 380 437 24,300 -1,800 Descending Miami Center
05:39PM 24.0231 -82.5242 180° South 380 437 22,500 -1,800 Descending Miami Center
05:40PM 23.9289 -82.5289 183° South 362 417 20,700 -1,800 Descending Miami Center
05:42PM 23.7142 -82.4781 175° South  Level FlightAware Approximate
05:49PM 22.9891 -82.4091 180° South  Level Estimated
05:50PM 22.9891 -82.4091 180° South  Level Estimated
05:51PM 22.9891 -82.4091 180° South  Level Estimated
05:52PM 22.9891 -82.4091 180° South  Level Estimated
05:53PM 22.9891 -82.4091 180° South  Level Estimated
05:54PM 22.9891 -82.4091 180° South  Level Estimated
05:55PM 22.9891 -82.4091 180° South  Level Estimated
05:56PM 22.9891 -82.4091 180° South  Level Estimated
05:57PM 22.9891 -82.4091 180° South  Level Estimated
05:58PM 22.9891 -82.4091 180° South  Level Estimated
05:59PM 22.9891 -82.4091 180° South  Level Estimated
06:00PM 22.9891 -82.4091 180° South  Level Estimated
06:01PM 22.9891 -82.4091 180° South  Level Estimated
06:02PM 22.9891 -82.4091 180° South  Level Estimated
06:03PM 22.9891 -82.4091 180° South  Level Estimated
06:04PM 22.9891 -82.4091 180° South  Level Estimated
06:05PM 22.9891 -82.4091 180° South  Level Estimated
06:06PM 22.9891 -82.4091 180° South  Level Estimated
06:07PM 22.9891 -82.4091 180° South  Level Estimated
06:08PM 22.9891 -82.4091 180° South  Level Estimated
06:09PM 22.9891 -82.4091 180° South  Level Estimated